Terminal Aerodrome Forecast
Issued by NWS

Home | Current Version | Previous Version | Graphics & Text | Print | Product List | Glossary On
Versions: 1 2 3 4 5 6 7 8 9 10 11 12 13 14 15 16 17 18 19 20 21 22 23 24 25 26 27 28 29 30 31 32 33 34 35 36 37 38 39 40 41 42 43 44 45 46 47 48 49 50
998
FTUS43 KLOT 241740
TAFGYY
TAF
KGYY 241740Z 2418/2518 18012G22KT P6SM SCT008 BKN035
     FM242100 22010KT P6SM SCT035 BKN250
     FM250500 VRB03KT P6SM VCTS SCT025CB OVC035
     FM250700 24008KT 6SM SHRA BR VCTS BKN025CB OVC050
      TEMPO 2509/2513 3SM TSRA BR BKN015CB
     FM251400 30007KT 6SM BR VCSH SCT025 BKN060=

USA.gov is the U.S. government's official web portal to all federal, state and local government web resources and services.